Time;durP1;ratioP1;P1;durP2;ratioP2;P2;SDS_P1;SDS_P2;PMS_P1;PMS_P2;Temp;Humidity;BMP_temperature;BMP_pressure;BME280_temperature;BME280_humidity;BME280_pressure;Samples;Min_cycle;Max_cycle;Signal;HPM_P1;HPM_P2
2022/01/27 00:05:22;;;;;;;71.23;32.87;;;2.60;99.90;;;;;;5076411;28;20169;-64
2022/01/27 00:08:07;;;;;;;63.57;30.17;;;2.60;99.90;;;;;;5076308;28;20596;-64
2022/01/27 00:13:01;;;;;;;69.30;31.83;;;2.60;99.90;;;;;;5075932;28;20178;-64
2022/01/27 00:15:32;;;;;;;64.90;30.70;;;2.60;99.90;;;;;;5076135;28;20537;-64
2022/01/27 00:18:02;;;;;;;66.47;31.27;;;2.60;99.90;;;;;;5076172;28;20200;-64
2022/01/27 00:20:28;;;;;;;67.57;31.13;;;2.70;99.90;;;;;;5076177;28;20158;-64
2022/01/27 00:22:54;;;;;;;65.63;32.53;;;2.60;99.90;;;;;;5075815;28;20184;-64
2022/01/27 00:25:20;;;;;;;60.13;30.03;;;2.60;99.90;;;;;;5074410;28;20625;-63
2022/01/27 00:27:46;;;;;;;67.77;29.73;;;2.60;99.90;;;;;;5075662;28;20227;-64
2022/01/27 00:30:12;;;;;;;66.23;32.03;;;2.60;99.90;;;;;;5075847;28;20193;-64
2022/01/27 00:32:38;;;;;;;68.63;30.97;;;2.70;99.90;;;;;;5075544;28;20547;-65
2022/01/27 00:35:05;;;;;;;62.13;29.80;;;2.70;99.90;;;;;;5075920;28;20265;-64
2022/01/27 00:37:32;;;;;;;61.03;30.13;;;2.70;99.90;;;;;;5075423;28;20280;-64
2022/01/27 00:39:58;;;;;;;69.73;30.97;;;2.70;99.90;;;;;;5075477;28;20170;-65
2022/01/27 00:42:25;;;;;;;75.43;31.67;;;2.70;99.90;;;;;;5075441;28;20638;-64
2022/01/27 00:44:51;;;;;;;61.17;31.70;;;2.70;99.90;;;;;;5075509;28;20181;-64
2022/01/27 00:47:17;;;;;;;63.50;30.97;;;2.70;99.90;;;;;;5075285;28;20260;-64
2022/01/27 00:49:43;;;;;;;65.77;31.07;;;2.70;99.90;;;;;;5075294;28;20294;-64
2022/01/27 00:52:14;;;;;;;56.83;30.40;;;2.70;99.90;;;;;;5075766;28;20180;-64
2022/01/27 00:54:40;;;;;;;62.83;29.37;;;2.70;99.90;;;;;;5076327;28;20168;-64
2022/01/27 01:05:48;;;;;;;60.37;28.70;;;2.60;99.90;;;;;;5073820;28;20201;-64
2022/01/27 01:07:56;;;;;;;60.20;32.03;;;2.60;99.90;;;;;;5074482;28;20218;-63
2022/01/27 01:15:46;;;;;;;57.47;31.30;;;2.50;99.90;;;;;;5075049;28;20215;-64
2022/01/27 01:18:31;;;;;;;59.83;31.57;;;2.50;99.90;;;;;;5074694;28;20197;-64
2022/01/27 01:32:07;;;;;;;71.37;33.83;;;2.40;99.90;;;;;;5074426;28;20545;-64
2022/01/27 01:34:33;;;;;;;69.07;33.27;;;2.40;99.90;;;;;;5074240;28;20193;-64
2022/01/27 01:37:05;;;;;;;61.10;33.20;;;2.40;99.90;;;;;;5074688;28;20271;-63
2022/01/27 01:39:34;;;;;;;69.70;33.70;;;2.40;99.90;;;;;;5072981;28;20189;-63
2022/01/27 01:42:03;;;;;;;58.43;32.37;;;2.30;99.90;;;;;;5074280;28;20627;-64
2022/01/27 01:44:29;;;;;;;69.03;32.57;;;2.30;99.90;;;;;;5074124;28;20182;-64
2022/01/27 01:46:55;;;;;;;63.80;31.73;;;2.30;99.90;;;;;;5074038;28;20281;-64
2022/01/27 01:49:26;;;;;;;65.40;31.87;;;2.20;99.90;;;;;;5074121;28;20267;-64
2022/01/27 01:52:00;;;;;;;68.43;32.00;;;2.30;99.90;;;;;;5072686;28;20177;-64
2022/01/27 01:54:26;;;;;;;68.47;31.63;;;2.30;99.90;;;;;;5072781;28;20184;-64
2022/01/27 01:56:52;;;;;;;64.23;31.87;;;2.20;99.90;;;;;;5072513;28;20206;-65
2022/01/27 01:59:19;;;;;;;61.43;31.83;;;2.20;99.90;;;;;;5074209;28;20677;-64
2022/01/27 02:01:45;;;;;;;59.40;30.60;;;2.20;99.90;;;;;;5074120;28;20182;-65
2022/01/27 02:04:12;;;;;;;59.60;30.77;;;2.20;99.90;;;;;;5073882;28;20647;-64
2022/01/27 02:07:02;;;;;;;62.50;31.23;;;2.20;99.90;;;;;;5072419;28;20194;-64
2022/01/27 02:17:59;;;;;;;59.77;29.93;;;2.20;99.90;;;;;;5073386;28;20250;-64
2022/01/27 02:20:25;;;;;;;56.77;28.67;;;2.20;99.90;;;;;;5073639;28;20158;-64
2022/01/27 02:22:51;;;;;;;64.70;32.30;;;2.20;99.90;;;;;;5073736;28;20190;-64
2022/01/27 02:25:19;;;;;;;68.87;29.80;;;2.30;99.90;;;;;;5073628;28;20178;-64
2022/01/27 02:27:45;;;;;;;59.40;30.77;;;2.20;99.90;;;;;;5073342;28;20255;-64
2022/01/27 02:30:11;;;;;;;58.00;27.90;;;2.30;99.90;;;;;;5073425;28;20205;-63
2022/01/27 02:32:37;;;;;;;57.67;27.47;;;2.20;99.90;;;;;;5072170;28;20677;-63
2022/01/27 02:35:04;;;;;;;61.27;29.27;;;2.30;99.90;;;;;;5074063;28;20162;-64
2022/01/27 02:37:30;;;;;;;53.67;27.53;;;2.30;99.90;;;;;;5072031;28;20197;-64
2022/01/27 02:39:56;;;;;;;57.80;26.67;;;2.30;99.90;;;;;;5073444;28;20215;-64
2022/01/27 02:42:34;;;;;;;56.13;28.30;;;2.30;99.90;;;;;;5072163;28;20188;-63
2022/01/27 02:45:16;;;;;;;52.03;28.67;;;2.40;99.90;;;;;;5072123;28;20188;-64
2022/01/27 02:47:42;;;;;;;56.30;28.30;;;2.40;99.90;;;;;;5073625;28;20276;-63
2022/01/27 02:50:08;;;;;;;49.80;26.87;;;2.40;99.90;;;;;;5073298;28;20300;-63
2022/01/27 02:52:34;;;;;;;53.53;28.47;;;2.40;99.90;;;;;;5073501;28;20178;-67
2022/01/27 02:55:00;;;;;;;51.40;26.80;;;2.40;99.90;;;;;;5071952;28;20422;-67
2022/01/27 02:57:26;;;;;;;52.87;28.03;;;2.40;99.90;;;;;;5071812;28;20201;-67
2022/01/27 02:59:52;;;;;;;54.53;28.67;;;2.50;99.90;;;;;;5073481;28;20178;-67
2022/01/27 03:02:19;;;;;;;54.70;27.87;;;2.50;99.90;;;;;;5073097;28;20352;-67
2022/01/27 03:04:45;;;;;;;49.20;26.70;;;2.50;99.90;;;;;;5073333;28;20174;-67
2022/01/27 03:07:12;;;;;;;51.67;27.00;;;2.50;99.90;;;;;;5073045;28;20217;-67
2022/01/27 03:09:38;;;;;;;61.87;27.77;;;2.50;99.90;;;;;;5073019;28;20225;-67
2022/01/27 03:12:07;;;;;;;54.47;28.23;;;2.50;99.90;;;;;;5071744;28;20552;-67
2022/01/27 03:14:34;;;;;;;52.07;28.30;;;2.50;99.90;;;;;;5071683;28;20182;-67
2022/01/27 03:17:01;;;;;;;55.70;27.37;;;2.50;99.90;;;;;;5073023;28;20186;-67
2022/01/27 03:19:27;;;;;;;52.33;28.70;;;2.50;99.90;;;;;;5072989;28;20269;-68
2022/01/27 03:21:55;;;;;;;53.23;27.20;;;2.50;99.90;;;;;;5073525;28;20568;-67
2022/01/27 03:24:22;;;;;;;52.40;27.93;;;2.50;99.90;;;;;;5073005;28;20177;-68
2022/01/27 03:26:48;;;;;;;52.80;26.40;;;2.50;99.90;;;;;;5073135;28;20216;-67
2022/01/27 03:29:16;;;;;;;59.73;29.13;;;2.50;99.90;;;;;;5076963;28;20200;-67
2022/01/27 03:31:43;;;;;;;60.80;29.90;;;2.40;99.90;;;;;;5077041;28;20181;-67
2022/01/27 03:34:08;;;;;;;58.60;28.50;;;2.40;99.90;;;;;;5077586;28;20204;-67
2022/01/27 03:36:34;;;;;;;52.07;26.63;;;2.40;99.90;;;;;;5076748;28;20202;-67
2022/01/27 03:39:00;;;;;;;54.40;27.37;;;2.40;99.90;;;;;;5075266;28;20235;-67
2022/01/27 03:41:31;;;;;;;53.77;27.83;;;2.40;99.90;;;;;;5076630;28;20681;-68
2022/01/27 03:43:57;;;;;;;53.60;27.77;;;2.50;99.90;;;;;;5077049;28;20162;-67
2022/01/27 03:46:22;;;;;;;57.80;28.50;;;2.50;99.90;;;;;;5076874;28;20189;-67
2022/01/27 03:48:48;;;;;;;59.80;28.57;;;2.50;99.90;;;;;;5076222;28;20198;-67
2022/01/27 03:51:14;;;;;;;50.43;27.87;;;2.50;99.90;;;;;;5076510;28;20181;-67
2022/01/27 03:53:40;;;;;;;56.77;28.23;;;2.50;99.90;;;;;;5075261;28;20178;-67
2022/01/27 03:56:07;;;;;;;60.17;29.40;;;2.50;99.90;;;;;;5076221;28;20181;-67
2022/01/27 03:58:33;;;;;;;58.83;29.90;;;2.50;99.90;;;;;;5076084;28;20190;-67
2022/01/27 04:01:02;;;;;;;52.63;28.43;;;2.50;99.90;;;;;;5074896;28;20188;-67
2022/01/27 04:03:30;;;;;;;62.87;28.50;;;2.50;99.90;;;;;;5076050;28;20208;-67
2022/01/27 04:06:03;;;;;;;55.20;28.00;;;2.50;99.90;;;;;;5076191;28;20227;-67
2022/01/27 04:08:29;;;;;;;56.67;28.13;;;2.50;99.90;;;;;;5076280;28;20593;-67
2022/01/27 04:10:54;;;;;;;54.37;28.33;;;2.50;99.90;;;;;;5075927;28;20182;-67
2022/01/27 04:13:20;;;;;;;56.67;27.17;;;2.50;99.90;;;;;;5076308;28;20162;-67
2022/01/27 04:15:46;;;;;;;58.43;28.90;;;2.60;99.90;;;;;;5076341;28;20231;-67
2022/01/27 04:18:12;;;;;;;54.50;28.33;;;2.50;99.90;;;;;;5075953;28;20264;-67
2022/01/27 04:20:39;;;;;;;53.27;28.13;;;2.60;99.90;;;;;;5075814;28;20189;-67
2022/01/27 04:23:06;;;;;;;53.83;27.63;;;2.60;99.90;;;;;;5075823;28;20213;-67
2022/01/27 04:25:32;;;;;;;55.90;27.73;;;2.60;99.90;;;;;;5075663;28;20638;-67
2022/01/27 04:28:03;;;;;;;52.77;28.07;;;2.60;99.90;;;;;;5074348;28;20233;-67
2022/01/27 04:30:29;;;;;;;55.27;27.83;;;2.60;99.90;;;;;;5074416;28;20201;-67
2022/01/27 04:33:00;;;;;;;59.63;26.33;;;2.60;99.90;;;;;;5075527;28;20178;-67
2022/01/27 04:35:29;;;;;;;54.33;28.00;;;2.60;99.90;;;;;;5075807;28;20192;-67
2022/01/27 04:48:22;;;;;;;54.37;26.93;;;2.70;99.90;;;;;;5075137;28;20258;-68
2022/01/27 04:50:50;;;;;;;56.77;27.67;;;2.70;99.90;;;;;;5073975;28;20188;-68
2022/01/27 04:53:22;;;;;;;54.47;26.80;;;2.70;99.90;;;;;;5075313;28;20166;-67
2022/01/27 04:55:48;;;;;;;47.47;26.73;;;2.70;99.90;;;;;;5073878;28;20162;-67
2022/01/27 04:58:19;;;;;;;56.57;28.80;;;2.70;99.90;;;;;;5073760;28;20208;-68
2022/01/27 05:00:45;;;;;;;50.07;26.40;;;2.70;99.90;;;;;;5075419;28;20162;-67
2022/01/27 05:03:24;;;;;;;49.33;26.80;;;2.70;99.90;;;;;;5074934;28;20524;-68
2022/01/27 05:05:52;;;;;;;53.63;26.50;;;2.80;99.90;;;;;;5073723;28;20199;-67
2022/01/27 05:08:19;;;;;;;46.80;26.63;;;2.80;99.90;;;;;;5073595;28;20201;-68
2022/01/27 05:11:06;;;;;;;51.47;27.03;;;2.80;99.90;;;;;;5073521;28;20182;-68
2022/01/27 05:13:39;;;;;;;54.13;27.07;;;2.80;99.90;;;;;;5075076;28;20182;-67
2022/01/27 05:16:06;;;;;;;49.80;25.97;;;2.80;99.90;;;;;;5073543;28;20170;-68
2022/01/27 05:18:31;;;;;;;49.47;26.20;;;2.90;99.90;;;;;;5074725;28;20574;-68
2022/01/27 05:20:57;;;;;;;52.30;26.90;;;2.90;99.90;;;;;;5074698;28;20184;-67
2022/01/27 05:23:23;;;;;;;51.63;25.33;;;2.90;99.90;;;;;;5074642;28;20178;-68
2022/01/27 05:25:48;;;;;;;52.50;25.57;;;2.90;99.90;;;;;;5075254;28;20166;-68
2022/01/27 05:28:14;;;;;;;54.07;27.47;;;2.90;99.90;;;;;;5076340;28;20210;-68
2022/01/27 05:30:40;;;;;;;45.83;25.03;;;2.90;99.90;;;;;;5076322;28;20255;-67
2022/01/27 05:33:09;;;;;;;49.60;27.17;;;3.00;99.90;;;;;;5074225;28;20182;-67
2022/01/27 05:35:35;;;;;;;50.50;26.10;;;3.00;99.90;;;;;;5074938;28;20166;-67
2022/01/27 05:38:01;;;;;;;48.00;25.77;;;3.10;99.90;;;;;;5074782;28;20202;-67
2022/01/27 05:40:27;;;;;;;45.73;25.00;;;3.10;99.90;;;;;;5074697;28;20181;-68
2022/01/27 05:42:53;;;;;;;45.47;24.87;;;3.20;99.90;;;;;;5074319;28;20203;-67
2022/01/27 05:45:19;;;;;;;47.07;24.63;;;3.20;99.90;;;;;;5074542;28;20182;-67
2022/01/27 05:47:45;;;;;;;42.17;23.97;;;3.20;99.90;;;;;;5072679;28;20205;-67
2022/01/27 05:50:11;;;;;;;44.73;22.20;;;3.30;99.90;;;;;;5073836;28;20705;-67
2022/01/27 05:52:36;;;;;;;43.13;23.27;;;3.30;99.90;;;;;;5072827;28;20186;-67
2022/01/27 05:55:02;;;;;;;43.57;21.90;;;3.30;99.90;;;;;;5073932;28;20177;-67
2022/01/27 05:57:28;;;;;;;43.53;23.30;;;3.40;99.90;;;;;;5074144;28;20194;-67
2022/01/27 05:59:54;;;;;;;41.57;22.53;;;3.40;99.90;;;;;;5073840;28;20539;-68
2022/01/27 06:02:19;;;;;;;44.07;22.63;;;3.40;99.90;;;;;;5073857;28;20177;-67
2022/01/27 06:04:45;;;;;;;38.17;22.57;;;3.40;99.90;;;;;;5073792;28;20553;-67
2022/01/27 06:07:11;;;;;;;42.67;23.23;;;3.40;99.90;;;;;;5073677;28;20201;-67
2022/01/27 06:09:37;;;;;;;45.53;23.53;;;3.50;99.90;;;;;;5073687;28;20537;-67
2022/01/27 06:12:02;;;;;;;43.40;22.33;;;3.50;99.90;;;;;;5073655;28;20177;-67
2022/01/27 06:14:28;;;;;;;43.00;22.77;;;3.50;99.90;;;;;;5073649;28;20178;-67
2022/01/27 06:16:54;;;;;;;45.60;23.07;;;3.50;99.90;;;;;;5073851;28;20222;-67
2022/01/27 06:19:20;;;;;;;40.20;21.93;;;3.60;99.90;;;;;;5073582;28;20182;-67
2022/01/27 06:21:45;;;;;;;38.87;21.77;;;3.60;99.90;;;;;;5072296;28;20548;-68
2022/01/27 06:24:11;;;;;;;37.97;21.20;;;3.60;99.90;;;;;;5072280;28;20192;-67
2022/01/27 06:26:37;;;;;;;42.50;22.10;;;3.70;99.90;;;;;;5073243;28;20202;-67
2022/01/27 06:29:03;;;;;;;48.10;23.67;;;3.70;99.90;;;;;;5072228;28;20201;-67
2022/01/27 06:31:30;;;;;;;38.57;21.87;;;3.70;99.90;;;;;;5073680;28;20208;-67
2022/01/27 06:33:56;;;;;;;46.03;23.63;;;3.70;99.90;;;;;;5073992;28;20256;-67
2022/01/27 06:36:22;;;;;;;44.80;23.57;;;3.80;99.90;;;;;;5073302;28;20698;-67
2022/01/27 06:38:48;;;;;;;39.67;22.37;;;3.80;99.90;;;;;;5072028;28;20721;-67
2022/01/27 06:41:14;;;;;;;40.13;21.83;;;3.80;99.90;;;;;;5072123;28;20188;-67
2022/01/27 06:43:39;;;;;;;40.73;22.07;;;3.80;99.90;;;;;;5073952;28;20253;-67
2022/01/27 06:46:05;;;;;;;43.80;22.97;;;3.80;99.90;;;;;;5073974;28;20676;-67
2022/01/27 06:48:31;;;;;;;41.57;22.17;;;3.80;99.90;;;;;;5073098;28;20251;-68
2022/01/27 06:50:57;;;;;;;40.40;22.23;;;3.90;99.90;;;;;;5073602;28;20650;-67
2022/01/27 06:53:23;;;;;;;36.47;21.70;;;3.90;99.90;;;;;;5075987;28;20173;-67
2022/01/27 06:55:50;;;;;;;41.47;22.97;;;3.90;99.90;;;;;;5075491;28;20248;-67
2022/01/27 06:58:16;;;;;;;41.73;22.37;;;3.90;99.90;;;;;;5075214;28;20281;-67
2022/01/27 07:00:42;;;;;;;42.20;23.33;;;3.90;99.90;;;;;;5075145;28;20235;-68
2022/01/27 07:03:08;;;;;;;44.33;22.47;;;3.90;99.90;;;;;;5078095;28;20189;-67
2022/01/27 07:05:34;;;;;;;36.93;22.30;;;4.00;99.90;;;;;;5080916;28;20177;-68
2022/01/27 07:08:01;;;;;;;42.13;23.00;;;4.00;99.90;;;;;;5076733;28;20201;-68
2022/01/27 07:10:28;;;;;;;42.17;22.20;;;4.10;99.90;;;;;;5076553;28;20678;-68
2022/01/27 07:12:54;;;;;;;45.27;22.90;;;4.00;99.90;;;;;;5077974;28;20261;-67
2022/01/27 07:15:20;;;;;;;42.53;21.50;;;4.00;99.90;;;;;;5075987;28;20658;-67
2022/01/27 07:17:47;;;;;;;40.90;23.60;;;4.10;99.90;;;;;;5077088;28;20204;-67
2022/01/27 07:20:13;;;;;;;40.07;22.30;;;4.00;99.90;;;;;;5075810;28;20178;-67
2022/01/27 07:22:39;;;;;;;40.93;22.97;;;4.00;99.90;;;;;;5076948;28;20174;-67
2022/01/27 07:25:07;;;;;;;36.70;22.03;;;4.00;99.90;;;;;;5076837;28;20235;-67
2022/01/27 07:27:34;;;;;;;40.10;22.10;;;4.00;99.90;;;;;;5076560;28;20588;-67
2022/01/27 07:30:00;;;;;;;44.07;23.63;;;4.00;99.90;;;;;;5076671;28;20216;-67
2022/01/27 07:32:26;;;;;;;40.47;23.13;;;4.00;99.90;;;;;;5076694;28;20169;-67
2022/01/27 07:34:52;;;;;;;40.87;22.23;;;4.00;99.90;;;;;;5077078;28;20186;-67
2022/01/27 07:37:18;;;;;;;39.17;21.33;;;4.00;99.90;;;;;;5076704;28;20556;-67
2022/01/27 07:39:44;;;;;;;38.10;21.67;;;4.00;99.90;;;;;;5076500;28;20181;-67
2022/01/27 07:42:09;;;;;;;39.43;20.73;;;4.10;99.90;;;;;;5076406;28;20178;-68
2022/01/27 07:44:35;;;;;;;43.53;22.10;;;4.10;99.90;;;;;;5076414;28;20231;-67
2022/01/27 07:47:01;;;;;;;40.97;22.13;;;4.10;99.90;;;;;;5076843;28;20555;-67
2022/01/27 07:49:28;;;;;;;39.53;22.17;;;4.20;99.90;;;;;;5076525;28;20206;-68
2022/01/27 07:51:54;;;;;;;42.20;22.67;;;4.20;99.90;;;;;;5076291;28;20699;-66
2022/01/27 07:54:20;;;;;;;39.10;21.77;;;4.20;99.90;;;;;;5075051;28;20601;-66
2022/01/27 07:56:46;;;;;;;36.33;20.70;;;4.20;99.90;;;;;;5076158;28;20233;-66
2022/01/27 07:59:12;;;;;;;44.80;22.47;;;4.20;99.90;;;;;;5076767;28;20182;-66
2022/01/27 08:01:38;;;;;;;42.53;22.37;;;4.20;99.90;;;;;;5074842;28;20270;-66
2022/01/27 08:04:04;;;;;;;41.37;22.00;;;4.20;99.90;;;;;;5076101;28;20182;-66
2022/01/27 08:06:29;;;;;;;42.20;23.90;;;4.20;99.90;;;;;;5076258;28;20185;-66
2022/01/27 08:08:55;;;;;;;41.13;23.30;;;4.20;99.90;;;;;;5075843;28;20571;-68
2022/01/27 08:11:21;;;;;;;39.07;21.77;;;4.20;99.90;;;;;;5075929;28;20180;-67
2022/01/27 08:13:47;;;;;;;43.90;23.03;;;4.20;99.90;;;;;;5073455;28;20663;-67
2022/01/27 08:16:12;;;;;;;44.00;22.10;;;4.20;99.90;;;;;;5075820;28;20180;-66
2022/01/27 08:18:38;;;;;;;46.47;23.97;;;4.20;99.90;;;;;;5076374;28;20684;-67
2022/01/27 08:21:04;;;;;;;46.67;24.43;;;4.30;99.90;;;;;;5075774;28;20579;-67
2022/01/27 08:23:30;;;;;;;38.87;23.07;;;4.20;99.90;;;;;;5074459;28;20703;-67
2022/01/27 08:26:06;;;;;;;41.30;23.23;;;4.20;99.90;;;;;;5074311;28;20186;-68
2022/01/27 08:28:39;;;;;;;40.27;22.97;;;4.20;99.90;;;;;;5075558;28;20197;-67
2022/01/27 08:31:04;;;;;;;47.43;24.40;;;4.20;99.90;;;;;;5075615;28;20189;-67
2022/01/27 08:33:32;;;;;;;48.30;23.70;;;4.20;99.90;;;;;;5074305;28;20210;-68
2022/01/27 08:36:01;;;;;;;49.63;23.33;;;4.20;99.90;;;;;;5074282;28;20550;-67
2022/01/27 08:38:28;;;;;;;45.67;24.53;;;4.10;99.90;;;;;;5075430;28;20201;-67
2022/01/27 08:40:54;;;;;;;49.13;24.53;;;4.10;99.90;;;;;;5075637;28;20627;-67
2022/01/27 08:43:21;;;;;;;45.00;24.63;;;4.10;99.90;;;;;;5075888;28;20193;-67
2022/01/27 08:45:46;;;;;;;53.80;25.73;;;4.00;99.90;;;;;;5074047;28;20643;-68
2022/01/27 08:48:17;;;;;;;54.13;26.17;;;4.00;99.90;;;;;;5075525;28;20200;-67
2022/01/27 08:50:50;;;;;;;57.40;26.83;;;4.00;99.90;;;;;;5075425;28;20202;-68
2022/01/27 08:53:16;;;;;;;47.37;25.93;;;4.00;99.90;;;;;;5073980;28;20171;-67
2022/01/27 08:55:44;;;;;;;52.10;27.20;;;4.00;99.90;;;;;;5073840;28;20178;-67
2022/01/27 08:58:11;;;;;;;55.77;26.87;;;4.00;99.90;;;;;;5073716;28;20690;-67
2022/01/27 09:00:37;;;;;;;47.93;26.40;;;4.00;99.90;;;;;;5075053;28;20197;-68
2022/01/27 09:03:03;;;;;;;52.17;27.77;;;3.90;99.90;;;;;;5073712;28;20186;-68
2022/01/27 09:05:29;;;;;;;54.97;27.37;;;4.00;99.90;;;;;;5074932;28;20182;-68
2022/01/27 09:07:57;;;;;;;60.10;27.70;;;4.00;99.90;;;;;;5075053;28;20268;-67
2022/01/27 09:10:23;;;;;;;52.53;27.13;;;4.00;99.90;;;;;;5073475;28;20201;-68
2022/01/27 09:12:49;;;;;;;53.03;25.50;;;4.00;99.90;;;;;;5075076;28;20571;-68
2022/01/27 09:15:15;;;;;;;50.83;26.17;;;4.00;99.90;;;;;;5073453;28;20235;-68
2022/01/27 09:17:41;;;;;;;48.47;26.63;;;4.00;99.90;;;;;;5074625;28;20202;-67
2022/01/27 09:20:09;;;;;;;53.80;25.80;;;4.00;99.90;;;;;;5073375;28;20248;-68
2022/01/27 09:22:36;;;;;;;57.50;25.80;;;4.00;99.90;;;;;;5074888;28;20181;-68
2022/01/27 09:25:10;;;;;;;51.10;26.57;;;4.00;99.90;;;;;;5074473;28;20243;-68
2022/01/27 09:27:36;;;;;;;56.67;26.67;;;4.00;99.90;;;;;;5073058;28;20591;-67
2022/01/27 09:30:01;;;;;;;53.63;25.27;;;4.00;99.90;;;;;;5073044;28;20256;-68
2022/01/27 09:32:27;;;;;;;48.23;25.47;;;4.00;99.90;;;;;;5074389;28;20231;-67
2022/01/27 09:34:53;;;;;;;48.53;23.90;;;4.00;99.90;;;;;;5074358;28;20178;-67
2022/01/27 09:37:19;;;;;;;50.50;23.77;;;4.10;99.90;;;;;;5072955;28;20197;-67
2022/01/27 09:39:46;;;;;;;51.37;24.30;;;4.10;99.90;;;;;;5072948;28;20642;-68
2022/01/27 09:42:12;;;;;;;46.87;23.00;;;4.10;99.90;;;;;;5074158;28;20638;-67
2022/01/27 09:44:41;;;;;;;45.60;23.77;;;4.10;99.90;;;;;;5073067;28;20673;-67
2022/01/27 09:47:12;;;;;;;37.57;21.37;;;4.10;99.90;;;;;;5072757;28;20237;-68
2022/01/27 09:49:42;;;;;;;38.03;22.53;;;4.10;99.90;;;;;;5074613;28;20190;-68
2022/01/27 09:52:09;;;;;;;39.57;21.13;;;4.10;99.90;;;;;;5074398;28;20155;-68
2022/01/27 09:54:36;;;;;;;32.17;20.10;;;4.20;99.90;;;;;;5072765;28;20181;-68
2022/01/27 09:57:03;;;;;;;40.40;20.80;;;4.20;99.90;;;;;;5073846;28;20197;-68
2022/01/27 09:59:30;;;;;;;37.93;20.97;;;4.20;99.90;;;;;;5072706;28;20238;-68
2022/01/27 10:02:07;;;;;;;38.23;20.63;;;4.30;99.90;;;;;;5072586;28;20654;-68
2022/01/27 10:04:59;;;;;;;36.40;19.77;;;4.30;99.90;;;;;;5074094;28;20185;-68
2022/01/27 10:07:28;;;;;;;36.43;19.53;;;4.30;99.90;;;;;;5073784;28;20250;-68
2022/01/27 10:09:56;;;;;;;35.07;18.67;;;4.40;99.90;;;;;;5073646;28;20669;-68
2022/01/27 10:12:42;;;;;;;35.23;20.40;;;4.40;99.90;;;;;;5073964;28;20223;-68
2022/01/27 10:15:17;;;;;;;42.23;21.57;;;4.40;99.90;;;;;;5074064;28;20182;-68
2022/01/27 10:18:10;;;;;;;46.97;21.87;;;4.50;99.90;;;;;;5072407;28;20207;-68
2022/01/27 10:20:38;;;;;;;53.17;27.50;;;4.50;99.90;;;;;;5070645;28;20281;-67
2022/01/27 10:23:40;;;;;;;31.67;20.57;;;4.50;99.90;;;;;;5073945;28;20193;-69
2022/01/27 10:26:14;;;;;;;30.30;18.37;;;4.60;99.90;;;;;;5054520;28;20223;-68
2022/01/27 10:28:46;;;;;;;31.03;17.73;;;4.60;99.90;;;;;;5073083;28;20196;-68
2022/01/27 10:31:24;;;;;;;27.47;18.00;;;4.60;99.90;;;;;;5073529;28;20154;-68
2022/01/27 10:33:53;;;;;;;31.43;17.73;;;4.60;99.90;;;;;;5074340;28;20517;-68
2022/01/27 10:36:24;;;;;;;28.13;17.93;;;4.70;99.90;;;;;;5073440;28;20589;-68
2022/01/27 10:39:03;;;;;;;28.37;18.03;;;4.70;99.90;;;;;;5073263;28;20182;-68
2022/01/27 10:41:35;;;;;;;27.30;16.23;;;4.70;99.90;;;;;;5073402;28;20165;-68
2022/01/27 10:44:07;;;;;;;28.37;17.43;;;4.70;99.90;;;;;;5072008;28;20254;-68
2022/01/27 10:46:33;;;;;;;29.17;16.23;;;4.70;99.90;;;;;;5073229;28;20255;-68
2022/01/27 10:49:07;;;;;;;25.07;16.43;;;4.70;99.90;;;;;;5073543;28;20208;-68
2022/01/27 10:51:51;;;;;;;24.27;15.27;;;4.80;99.90;;;;;;5073613;28;20245;-68
2022/01/27 10:54:34;;;;;;;24.30;14.37;;;4.80;99.90;;;;;;5073296;28;20154;-68
2022/01/27 10:57:26;;;;;;;27.67;15.90;;;4.80;99.90;;;;;;5071902;28;20201;-68
2022/01/27 11:00:14;;;;;;;23.50;15.43;;;4.80;99.90;;;;;;5072902;28;20197;-68
2022/01/27 11:02:56;;;;;;;24.90;14.83;;;4.80;99.90;;;;;;5073540;28;20158;-68
2022/01/27 11:05:40;;;;;;;24.50;14.40;;;4.80;99.90;;;;;;5073801;28;20231;-68
2022/01/27 11:08:07;;;;;;;23.83;15.07;;;4.80;99.90;;;;;;5073450;28;20643;-68
2022/01/27 11:10:33;;;;;;;20.17;13.83;;;4.90;99.90;;;;;;5073304;28;20255;-68
2022/01/27 11:12:59;;;;;;;20.57;13.67;;;4.90;99.90;;;;;;5073113;28;20178;-70
2022/01/27 11:15:25;;;;;;;26.37;14.50;;;4.90;99.90;;;;;;5073065;28;20177;-68
2022/01/27 11:17:53;;;;;;;18.70;12.47;;;4.90;99.90;;;;;;5073157;28;20229;-68
2022/01/27 11:27:58;;;;;;;22.70;13.43;;;5.00;99.90;;;;;;5072771;28;20628;-68
2022/01/27 11:30:42;;;;;;;20.57;13.50;;;5.00;99.90;;;;;;5071602;28;20236;-68
2022/01/27 11:33:12;;;;;;;24.77;13.63;;;5.00;99.90;;;;;;5072841;28;20257;-68
2022/01/27 11:35:39;;;;;;;16.80;12.23;;;5.00;99.90;;;;;;5072051;28;20178;-68
2022/01/27 11:38:06;;;;;;;19.90;13.37;;;5.00;99.90;;;;;;5073495;28;20201;-68
2022/01/27 11:40:45;;;;;;;20.77;13.90;;;5.00;99.90;;;;;;5073003;28;20239;-68
2022/01/27 11:43:11;;;;;;;22.00;15.90;;;5.10;99.90;;;;;;5072856;28;20209;-69
2022/01/27 11:45:44;;;;;;;17.17;12.77;;;5.10;99.90;;;;;;5072744;28;20225;-68
2022/01/27 11:48:24;;;;;;;21.83;12.93;;;5.10;99.90;;;;;;5073597;28;20198;-68
2022/01/27 11:50:53;;;;;;;18.73;13.73;;;5.10;99.90;;;;;;5076584;28;20197;-67
2022/01/27 11:53:34;;;;;;;22.90;14.03;;;5.10;99.90;;;;;;5076577;28;20174;-68
2022/01/27 11:56:07;;;;;;;25.60;13.93;;;5.10;99.90;;;;;;5076668;28;20626;-67
2022/01/27 11:58:51;;;;;;;22.53;14.40;;;5.10;99.90;;;;;;5075775;28;20206;-68
2022/01/27 12:01:21;;;;;;;22.93;14.83;;;5.20;99.90;;;;;;5076354;28;20154;-68
2022/01/27 12:04:15;;;;;;;21.60;15.07;;;5.20;99.90;;;;;;5075103;28;20226;-68
2022/01/27 12:07:20;;;;;;;26.57;16.83;;;5.20;99.90;;;;;;5074767;28;20198;-69
2022/01/27 12:09:50;;;;;;;22.87;15.43;;;5.30;99.90;;;;;;5075943;28;20278;-68
2022/01/27 12:12:32;;;;;;;27.73;17.87;;;5.30;99.90;;;;;;5074769;28;20185;-68
2022/01/27 12:15:09;;;;;;;24.93;15.27;;;5.30;99.90;;;;;;5074803;28;20184;-68
2022/01/27 12:17:35;;;;;;;22.50;13.97;;;5.40;99.90;;;;;;5074840;28;20288;-68
2022/01/27 12:20:08;;;;;;;18.13;13.67;;;5.40;99.90;;;;;;5075749;28;20265;-68
2022/01/27 12:22:46;;;;;;;20.93;14.43;;;5.40;99.90;;;;;;5074883;28;20231;-68
2022/01/27 12:25:13;;;;;;;24.60;14.03;;;5.40;99.90;;;;;;5074776;28;20653;-68
2022/01/27 12:27:41;;;;;;;23.40;13.80;;;5.40;99.90;;;;;;5074237;28;20217;-68
2022/01/27 12:30:12;;;;;;;22.57;13.93;;;5.50;99.90;;;;;;5075639;28;20289;-68
2022/01/27 12:32:38;;;;;;;21.00;13.27;;;5.50;99.90;;;;;;5075942;28;20615;-68
2022/01/27 12:35:08;;;;;;;25.17;13.90;;;5.50;99.90;;;;;;5074335;28;20231;-68
2022/01/27 12:37:45;;;;;;;17.87;13.40;;;5.50;99.90;;;;;;5074185;28;20202;-68
2022/01/27 12:40:22;;;;;;;26.23;14.70;;;5.50;99.90;;;;;;5074448;28;20277;-68
2022/01/27 12:43:13;;;;;;;20.50;14.63;;;5.50;99.90;;;;;;5073944;28;20636;-68
2022/01/27 12:45:43;;;;;;;28.47;15.67;;;5.50;99.90;;;;;;5074042;28;20561;-68
2022/01/27 12:48:25;;;;;;;24.27;13.87;;;5.50;99.90;;;;;;5074506;28;20546;-68
2022/01/27 12:50:57;;;;;;;26.03;14.83;;;5.60;99.90;;;;;;5073930;28;20217;-68
2022/01/27 12:53:24;;;;;;;26.23;14.23;;;5.60;99.90;;;;;;5073922;28;20539;-68
2022/01/27 12:55:50;;;;;;;24.67;13.50;;;5.60;99.90;;;;;;5073878;28;20209;-68
2022/01/27 12:58:20;;;;;;;23.40;14.73;;;5.60;99.90;;;;;;5073747;28;20612;-68
2022/01/27 13:00:54;;;;;;;23.13;14.27;;;5.60;99.90;;;;;;5073083;28;20264;-68
2022/01/27 13:03:24;;;;;;;19.73;13.90;;;5.60;99.90;;;;;;5073808;28;20311;-68
2022/01/27 13:05:53;;;;;;;20.83;13.00;;;5.60;99.90;;;;;;5074243;28;20185;-68
2022/01/27 13:08:28;;;;;;;19.87;12.90;;;5.70;99.90;;;;;;5073511;28;20205;-68
2022/01/27 13:10:59;;;;;;;18.60;13.07;;;5.70;99.90;;;;;;5073840;28;20201;-68
2022/01/27 13:13:31;;;;;;;19.10;12.50;;;5.70;99.90;;;;;;5073586;28;20162;-68
2022/01/27 13:16:05;;;;;;;20.77;12.87;;;5.70;99.90;;;;;;5073805;28;20201;-69
2022/01/27 13:18:49;;;;;;;19.40;12.00;;;5.70;99.90;;;;;;5073449;28;20250;-68
2022/01/27 13:21:22;;;;;;;22.03;13.23;;;5.70;99.90;;;;;;5074718;28;20161;-68
2022/01/27 13:24:27;;;;;;;18.17;12.63;;;5.70;99.90;;;;;;5073601;28;20172;-67
2022/01/27 13:27:09;;;;;;;16.00;11.93;;;5.70;99.90;;;;;;5073927;28;20221;-68
2022/01/27 13:29:47;;;;;;;18.37;12.37;;;5.70;99.90;;;;;;5073737;28;20205;-67
2022/01/27 13:32:14;;;;;;;20.23;13.17;;;5.70;99.90;;;;;;5073493;28;20170;-68
2022/01/27 13:34:52;;;;;;;22.13;13.73;;;5.70;99.90;;;;;;5073216;28;20177;-67
2022/01/27 13:37:46;;;;;;;20.20;13.40;;;5.80;99.90;;;;;;5070206;28;20681;-68
2022/01/27 13:43:16;;;;;;;19.93;13.40;;;5.80;99.90;;;;;;5074860;28;20208;-67
2022/01/27 13:45:44;;;;;;;21.70;15.33;;;5.80;99.90;;;;;;5072914;28;20170;-68
2022/01/27 13:48:18;;;;;;;22.40;14.30;;;5.80;99.90;;;;;;5072550;28;20213;-68